sensor_id;sensor_type;location;lat;lon;timestamp;P1;durP1;ratioP1;P2;durP2;ratioP2
20531;SDS011;10424;52.102;8.084;2023-02-19T00:00:13;19.83;;;9.13;;
20531;SDS011;10424;52.102;8.084;2023-02-19T00:02:40;19.45;;;8.63;;
20531;SDS011;10424;52.102;8.084;2023-02-19T00:05:10;19.08;;;8.80;;
20531;SDS011;10424;52.102;8.084;2023-02-19T00:07:37;20.60;;;7.63;;
20531;SDS011;10424;52.102;8.084;2023-02-19T00:10:06;19.25;;;8.77;;
20531;SDS011;10424;52.102;8.084;2023-02-19T00:12:34;19.33;;;8.82;;
20531;SDS011;10424;52.102;8.084;2023-02-19T00:15:01;16.85;;;8.40;;
20531;SDS011;10424;52.102;8.084;2023-02-19T00:17:29;17.38;;;7.65;;
20531;SDS011;10424;52.102;8.084;2023-02-19T00:19:56;18.20;;;8.48;;
20531;SDS011;10424;52.102;8.084;2023-02-19T00:22:24;15.95;;;8.23;;
20531;SDS011;10424;52.102;8.084;2023-02-19T00:24:51;18.05;;;8.38;;
20531;SDS011;10424;52.102;8.084;2023-02-19T00:27:20;16.48;;;8.25;;
20531;SDS011;10424;52.102;8.084;2023-02-19T00:29:47;17.73;;;7.90;;
20531;SDS011;10424;52.102;8.084;2023-02-19T00:32:14;18.85;;;8.05;;
20531;SDS011;10424;52.102;8.084;2023-02-19T00:34:41;15.90;;;7.63;;
20531;SDS011;10424;52.102;8.084;2023-02-19T00:37:09;18.48;;;8.60;;
20531;SDS011;10424;52.102;8.084;2023-02-19T00:39:36;16.98;;;8.35;;
20531;SDS011;10424;52.102;8.084;2023-02-19T00:42:03;18.50;;;8.73;;
20531;SDS011;10424;52.102;8.084;2023-02-19T00:44:32;12.63;;;6.35;;
20531;SDS011;10424;52.102;8.084;2023-02-19T00:46:59;14.77;;;7.70;;
20531;SDS011;10424;52.102;8.084;2023-02-19T00:49:26;15.45;;;7.55;;
20531;SDS011;10424;52.102;8.084;2023-02-19T00:51:53;16.38;;;7.60;;
20531;SDS011;10424;52.102;8.084;2023-02-19T00:54:21;15.60;;;7.18;;
20531;SDS011;10424;52.102;8.084;2023-02-19T00:56:48;15.40;;;7.00;;
20531;SDS011;10424;52.102;8.084;2023-02-19T00:59:16;15.02;;;6.65;;
20531;SDS011;10424;52.102;8.084;2023-02-19T01:01:44;12.38;;;6.30;;
20531;SDS011;10424;52.102;8.084;2023-02-19T01:04:13;14.32;;;6.75;;
20531;SDS011;10424;52.102;8.084;2023-02-19T01:06:41;16.15;;;7.57;;
20531;SDS011;10424;52.102;8.084;2023-02-19T01:09:08;15.48;;;6.95;;
20531;SDS011;10424;52.102;8.084;2023-02-19T01:11:35;14.68;;;7.30;;
20531;SDS011;10424;52.102;8.084;2023-02-19T01:14:02;17.52;;;7.47;;
20531;SDS011;10424;52.102;8.084;2023-02-19T01:16:30;15.20;;;6.95;;
20531;SDS011;10424;52.102;8.084;2023-02-19T01:18:58;17.75;;;7.70;;
20531;SDS011;10424;52.102;8.084;2023-02-19T01:21:27;19.20;;;8.13;;
20531;SDS011;10424;52.102;8.084;2023-02-19T01:23:54;20.10;;;8.68;;
20531;SDS011;10424;52.102;8.084;2023-02-19T01:26:23;19.17;;;8.75;;
20531;SDS011;10424;52.102;8.084;2023-02-19T01:28:50;22.98;;;9.75;;
20531;SDS011;10424;52.102;8.084;2023-02-19T01:31:19;24.67;;;10.27;;
20531;SDS011;10424;52.102;8.084;2023-02-19T01:33:47;25.85;;;10.25;;
20531;SDS011;10424;52.102;8.084;2023-02-19T01:36:16;25.15;;;10.60;;
20531;SDS011;10424;52.102;8.084;2023-02-19T01:38:43;26.70;;;11.05;;
20531;SDS011;10424;52.102;8.084;2023-02-19T01:41:12;27.30;;;11.07;;
20531;SDS011;10424;52.102;8.084;2023-02-19T01:43:56;26.48;;;11.27;;
20531;SDS011;10424;52.102;8.084;2023-02-19T01:46:24;27.42;;;11.35;;
20531;SDS011;10424;52.102;8.084;2023-02-19T01:48:52;26.10;;;11.48;;
20531;SDS011;10424;52.102;8.084;2023-02-19T01:51:21;31.40;;;12.00;;
20531;SDS011;10424;52.102;8.084;2023-02-19T01:53:49;29.60;;;11.27;;
20531;SDS011;10424;52.102;8.084;2023-02-19T01:56:18;32.15;;;11.98;;
20531;SDS011;10424;52.102;8.084;2023-02-19T01:58:46;28.95;;;11.20;;
20531;SDS011;10424;52.102;8.084;2023-02-19T02:01:13;33.90;;;11.98;;
20531;SDS011;10424;52.102;8.084;2023-02-19T02:03:41;29.23;;;12.55;;
20531;SDS011;10424;52.102;8.084;2023-02-19T02:06:10;28.63;;;11.27;;
20531;SDS011;10424;52.102;8.084;2023-02-19T02:08:41;28.40;;;11.40;;
20531;SDS011;10424;52.102;8.084;2023-02-19T02:11:34;26.70;;;11.50;;
20531;SDS011;10424;52.102;8.084;2023-02-19T02:14:02;26.45;;;11.75;;
20531;SDS011;10424;52.102;8.084;2023-02-19T02:16:32;25.50;;;11.30;;
20531;SDS011;10424;52.102;8.084;2023-02-19T02:19:01;32.65;;;11.88;;
20531;SDS011;10424;52.102;8.084;2023-02-19T02:27:23;25.42;;;10.63;;
20531;SDS011;10424;52.102;8.084;2023-02-19T02:29:59;29.23;;;12.45;;
20531;SDS011;10424;52.102;8.084;2023-02-19T02:32:32;31.10;;;12.95;;
20531;SDS011;10424;52.102;8.084;2023-02-19T02:35:03;27.08;;;12.50;;
20531;SDS011;10424;52.102;8.084;2023-02-19T02:37:32;30.85;;;12.18;;
20531;SDS011;10424;52.102;8.084;2023-02-19T02:40:00;26.52;;;11.50;;
20531;SDS011;10424;52.102;8.084;2023-02-19T02:42:28;30.88;;;13.20;;
20531;SDS011;10424;52.102;8.084;2023-02-19T02:44:57;35.42;;;14.00;;
20531;SDS011;10424;52.102;8.084;2023-02-19T02:47:56;35.20;;;14.27;;
20531;SDS011;10424;52.102;8.084;2023-02-19T02:50:24;34.38;;;13.50;;
20531;SDS011;10424;52.102;8.084;2023-02-19T02:52:55;34.40;;;13.45;;
20531;SDS011;10424;52.102;8.084;2023-02-19T02:55:41;31.27;;;12.43;;
20531;SDS011;10424;52.102;8.084;2023-02-19T02:58:09;33.28;;;13.25;;
20531;SDS011;10424;52.102;8.084;2023-02-19T03:00:39;32.08;;;14.18;;
20531;SDS011;10424;52.102;8.084;2023-02-19T03:03:26;38.63;;;14.48;;
20531;SDS011;10424;52.102;8.084;2023-02-19T03:05:55;32.75;;;13.48;;
20531;SDS011;10424;52.102;8.084;2023-02-19T03:08:24;29.60;;;13.20;;
20531;SDS011;10424;52.102;8.084;2023-02-19T03:10:53;31.55;;;14.45;;
20531;SDS011;10424;52.102;8.084;2023-02-19T03:13:24;34.55;;;14.20;;
20531;SDS011;10424;52.102;8.084;2023-02-19T03:16:13;32.90;;;13.60;;
20531;SDS011;10424;52.102;8.084;2023-02-19T03:18:58;34.40;;;13.32;;
20531;SDS011;10424;52.102;8.084;2023-02-19T03:21:44;35.17;;;14.27;;
20531;SDS011;10424;52.102;8.084;2023-02-19T03:24:13;34.00;;;14.95;;
20531;SDS011;10424;52.102;8.084;2023-02-19T03:26:58;33.97;;;13.38;;
20531;SDS011;10424;52.102;8.084;2023-02-19T03:29:29;34.53;;;13.93;;
20531;SDS011;10424;52.102;8.084;2023-02-19T03:31:59;39.20;;;14.15;;
20531;SDS011;10424;52.102;8.084;2023-02-19T03:34:28;32.47;;;14.27;;
20531;SDS011;10424;52.102;8.084;2023-02-19T03:36:59;36.55;;;14.30;;
20531;SDS011;10424;52.102;8.084;2023-02-19T03:39:28;32.67;;;13.75;;
20531;SDS011;10424;52.102;8.084;2023-02-19T03:41:57;35.55;;;13.57;;
20531;SDS011;10424;52.102;8.084;2023-02-19T03:44:28;27.58;;;11.02;;
20531;SDS011;10424;52.102;8.084;2023-02-19T03:47:03;27.73;;;12.05;;
20531;SDS011;10424;52.102;8.084;2023-02-19T03:49:33;26.45;;;12.30;;
20531;SDS011;10424;52.102;8.084;2023-02-19T03:52:05;28.75;;;13.15;;
20531;SDS011;10424;52.102;8.084;2023-02-19T03:54:37;27.88;;;12.77;;
20531;SDS011;10424;52.102;8.084;2023-02-19T03:57:06;24.73;;;12.27;;
20531;SDS011;10424;52.102;8.084;2023-02-19T03:59:38;24.80;;;12.00;;
20531;SDS011;10424;52.102;8.084;2023-02-19T04:02:08;27.25;;;11.82;;
20531;SDS011;10424;52.102;8.084;2023-02-19T04:04:38;26.52;;;11.65;;
20531;SDS011;10424;52.102;8.084;2023-02-19T04:07:08;23.63;;;11.75;;
20531;SDS011;10424;52.102;8.084;2023-02-19T04:09:36;24.90;;;11.00;;
20531;SDS011;10424;52.102;8.084;2023-02-19T04:12:04;27.73;;;11.90;;
20531;SDS011;10424;52.102;8.084;2023-02-19T04:14:34;22.98;;;11.73;;
20531;SDS011;10424;52.102;8.084;2023-02-19T04:17:06;26.80;;;10.93;;
20531;SDS011;10424;52.102;8.084;2023-02-19T04:19:36;19.45;;;8.95;;
20531;SDS011;10424;52.102;8.084;2023-02-19T04:24:42;19.55;;;9.18;;
20531;SDS011;10424;52.102;8.084;2023-02-19T04:27:10;16.02;;;8.52;;
20531;SDS011;10424;52.102;8.084;2023-02-19T04:29:37;22.15;;;9.25;;
20531;SDS011;10424;52.102;8.084;2023-02-19T04:32:04;19.45;;;9.52;;
20531;SDS011;10424;52.102;8.084;2023-02-19T04:34:32;18.30;;;8.95;;
20531;SDS011;10424;52.102;8.084;2023-02-19T04:37:00;17.75;;;9.30;;
20531;SDS011;10424;52.102;8.084;2023-02-19T04:39:28;17.05;;;8.65;;
20531;SDS011;10424;52.102;8.084;2023-02-19T04:41:55;18.75;;;9.07;;
20531;SDS011;10424;52.102;8.084;2023-02-19T04:44:22;17.17;;;8.10;;
20531;SDS011;10424;52.102;8.084;2023-02-19T04:46:50;16.73;;;8.43;;
20531;SDS011;10424;52.102;8.084;2023-02-19T04:49:17;16.48;;;8.65;;
20531;SDS011;10424;52.102;8.084;2023-02-19T04:51:44;19.67;;;8.95;;
20531;SDS011;10424;52.102;8.084;2023-02-19T04:54:13;20.25;;;8.23;;
20531;SDS011;10424;52.102;8.084;2023-02-19T04:56:40;17.55;;;7.72;;
20531;SDS011;10424;52.102;8.084;2023-02-19T04:59:07;20.88;;;9.00;;
20531;SDS011;10424;52.102;8.084;2023-02-19T05:01:34;16.33;;;7.90;;
20531;SDS011;10424;52.102;8.084;2023-02-19T05:04:02;16.08;;;7.93;;
20531;SDS011;10424;52.102;8.084;2023-02-19T05:06:29;16.52;;;8.48;;
20531;SDS011;10424;52.102;8.084;2023-02-19T05:08:56;20.10;;;9.00;;
20531;SDS011;10424;52.102;8.084;2023-02-19T05:11:25;17.88;;;9.23;;
20531;SDS011;10424;52.102;8.084;2023-02-19T05:13:53;19.73;;;9.75;;
20531;SDS011;10424;52.102;8.084;2023-02-19T05:16:21;18.15;;;9.82;;
20531;SDS011;10424;52.102;8.084;2023-02-19T05:18:48;18.45;;;9.25;;
20531;SDS011;10424;52.102;8.084;2023-02-19T05:21:15;21.40;;;10.52;;
20531;SDS011;10424;52.102;8.084;2023-02-19T05:23:43;18.92;;;9.00;;
20531;SDS011;10424;52.102;8.084;2023-02-19T05:26:11;19.50;;;9.35;;
20531;SDS011;10424;52.102;8.084;2023-02-19T05:28:42;21.58;;;8.88;;
20531;SDS011;10424;52.102;8.084;2023-02-19T05:31:09;21.80;;;9.10;;
20531;SDS011;10424;52.102;8.084;2023-02-19T05:33:37;22.08;;;9.13;;
20531;SDS011;10424;52.102;8.084;2023-02-19T05:36:06;19.88;;;9.38;;
20531;SDS011;10424;52.102;8.084;2023-02-19T05:38:33;18.98;;;8.82;;
20531;SDS011;10424;52.102;8.084;2023-02-19T05:41:08;17.45;;;8.57;;
20531;SDS011;10424;52.102;8.084;2023-02-19T05:43:35;17.52;;;7.93;;
20531;SDS011;10424;52.102;8.084;2023-02-19T05:46:04;16.98;;;8.48;;
20531;SDS011;10424;52.102;8.084;2023-02-19T05:48:31;16.33;;;8.00;;
20531;SDS011;10424;52.102;8.084;2023-02-19T05:51:01;16.38;;;8.32;;
20531;SDS011;10424;52.102;8.084;2023-02-19T05:53:29;17.33;;;7.82;;
20531;SDS011;10424;52.102;8.084;2023-02-19T05:55:56;16.88;;;7.38;;
20531;SDS011;10424;52.102;8.084;2023-02-19T05:58:24;13.52;;;7.30;;
20531;SDS011;10424;52.102;8.084;2023-02-19T06:00:51;14.90;;;7.47;;
20531;SDS011;10424;52.102;8.084;2023-02-19T06:03:20;14.57;;;7.60;;
20531;SDS011;10424;52.102;8.084;2023-02-19T06:05:47;13.05;;;6.93;;
20531;SDS011;10424;52.102;8.084;2023-02-19T06:08:14;15.68;;;7.60;;
20531;SDS011;10424;52.102;8.084;2023-02-19T06:10:42;16.95;;;7.60;;
20531;SDS011;10424;52.102;8.084;2023-02-19T06:13:09;14.27;;;6.78;;
20531;SDS011;10424;52.102;8.084;2023-02-19T06:15:37;15.35;;;7.05;;
20531;SDS011;10424;52.102;8.084;2023-02-19T06:18:04;16.52;;;7.45;;
20531;SDS011;10424;52.102;8.084;2023-02-19T06:20:33;14.57;;;6.47;;
20531;SDS011;10424;52.102;8.084;2023-02-19T06:23:00;14.95;;;7.07;;
20531;SDS011;10424;52.102;8.084;2023-02-19T06:25:27;15.70;;;6.68;;
20531;SDS011;10424;52.102;8.084;2023-02-19T06:27:55;17.63;;;6.90;;
20531;SDS011;10424;52.102;8.084;2023-02-19T06:30:22;13.07;;;5.85;;
20531;SDS011;10424;52.102;8.084;2023-02-19T06:32:50;14.70;;;6.40;;
20531;SDS011;10424;52.102;8.084;2023-02-19T06:35:18;16.52;;;6.97;;
20531;SDS011;10424;52.102;8.084;2023-02-19T06:37:47;15.40;;;6.25;;
20531;SDS011;10424;52.102;8.084;2023-02-19T06:40:15;12.77;;;6.10;;
20531;SDS011;10424;52.102;8.084;2023-02-19T06:42:42;13.27;;;6.75;;
20531;SDS011;10424;52.102;8.084;2023-02-19T06:45:09;13.43;;;6.40;;
20531;SDS011;10424;52.102;8.084;2023-02-19T06:47:37;13.20;;;6.22;;
20531;SDS011;10424;52.102;8.084;2023-02-19T06:50:04;10.18;;;4.40;;
20531;SDS011;10424;52.102;8.084;2023-02-19T06:52:32;6.15;;;3.35;;
20531;SDS011;10424;52.102;8.084;2023-02-19T06:55:00;4.63;;;2.80;;
20531;SDS011;10424;52.102;8.084;2023-02-19T06:57:27;2.67;;;1.80;;
20531;SDS011;10424;52.102;8.084;2023-02-19T06:59:55;2.42;;;1.63;;
20531;SDS011;10424;52.102;8.084;2023-02-19T07:02:22;2.30;;;1.45;;
20531;SDS011;10424;52.102;8.084;2023-02-19T07:04:50;2.20;;;1.60;;
20531;SDS011;10424;52.102;8.084;2023-02-19T07:07:17;3.58;;;2.35;;
20531;SDS011;10424;52.102;8.084;2023-02-19T07:09:44;2.97;;;1.90;;
20531;SDS011;10424;52.102;8.084;2023-02-19T07:12:16;3.20;;;1.90;;
20531;SDS011;10424;52.102;8.084;2023-02-19T07:14:43;2.90;;;1.90;;
20531;SDS011;10424;52.102;8.084;2023-02-19T07:17:10;3.30;;;2.00;;
20531;SDS011;10424;52.102;8.084;2023-02-19T07:19:38;2.88;;;1.90;;
20531;SDS011;10424;52.102;8.084;2023-02-19T07:22:05;3.15;;;2.20;;
20531;SDS011;10424;52.102;8.084;2023-02-19T07:24:32;3.83;;;2.25;;
20531;SDS011;10424;52.102;8.084;2023-02-19T07:26:59;4.07;;;2.35;;
20531;SDS011;10424;52.102;8.084;2023-02-19T07:29:28;3.95;;;2.45;;
20531;SDS011;10424;52.102;8.084;2023-02-19T07:31:55;3.33;;;2.08;;
20531;SDS011;10424;52.102;8.084;2023-02-19T07:34:22;4.80;;;3.00;;
20531;SDS011;10424;52.102;8.084;2023-02-19T07:36:50;3.78;;;2.60;;
20531;SDS011;10424;52.102;8.084;2023-02-19T07:39:17;4.13;;;2.40;;
20531;SDS011;10424;52.102;8.084;2023-02-19T07:41:44;4.18;;;2.47;;
20531;SDS011;10424;52.102;8.084;2023-02-19T07:44:11;3.45;;;2.20;;
20531;SDS011;10424;52.102;8.084;2023-02-19T07:46:42;7.15;;;3.33;;
20531;SDS011;10424;52.102;8.084;2023-02-19T07:49:09;4.13;;;2.28;;
20531;SDS011;10424;52.102;8.084;2023-02-19T07:51:36;3.30;;;2.25;;
20531;SDS011;10424;52.102;8.084;2023-02-19T07:54:04;3.65;;;2.20;;
20531;SDS011;10424;52.102;8.084;2023-02-19T07:56:31;4.40;;;2.58;;
20531;SDS011;10424;52.102;8.084;2023-02-19T07:58:59;4.40;;;2.55;;
20531;SDS011;10424;52.102;8.084;2023-02-19T08:01:26;3.72;;;2.35;;
20531;SDS011;10424;52.102;8.084;2023-02-19T08:04:09;4.20;;;2.58;;
20531;SDS011;10424;52.102;8.084;2023-02-19T08:06:36;4.00;;;2.50;;
20531;SDS011;10424;52.102;8.084;2023-02-19T08:09:03;3.28;;;2.20;;
20531;SDS011;10424;52.102;8.084;2023-02-19T08:11:31;3.90;;;2.40;;
20531;SDS011;10424;52.102;8.084;2023-02-19T08:14:23;3.40;;;2.00;;
20531;SDS011;10424;52.102;8.084;2023-02-19T08:16:50;3.28;;;2.10;;
20531;SDS011;10424;52.102;8.084;2023-02-19T08:19:20;4.38;;;2.78;;
20531;SDS011;10424;52.102;8.084;2023-02-19T08:21:47;4.43;;;2.80;;
20531;SDS011;10424;52.102;8.084;2023-02-19T08:24:15;4.70;;;2.92;;
20531;SDS011;10424;52.102;8.084;2023-02-19T08:26:42;4.95;;;2.70;;
20531;SDS011;10424;52.102;8.084;2023-02-19T08:29:09;3.63;;;2.40;;
20531;SDS011;10424;52.102;8.084;2023-02-19T08:31:37;6.40;;;3.08;;
20531;SDS011;10424;52.102;8.084;2023-02-19T08:34:04;5.07;;;2.97;;
20531;SDS011;10424;52.102;8.084;2023-02-19T08:36:32;4.28;;;2.60;;
20531;SDS011;10424;52.102;8.084;2023-02-19T08:39:00;3.72;;;2.22;;
20531;SDS011;10424;52.102;8.084;2023-02-19T08:41:27;4.53;;;2.60;;
20531;SDS011;10424;52.102;8.084;2023-02-19T08:43:54;4.25;;;2.35;;
20531;SDS011;10424;52.102;8.084;2023-02-19T08:46:22;4.63;;;2.60;;
20531;SDS011;10424;52.102;8.084;2023-02-19T08:48:49;5.72;;;2.90;;
20531;SDS011;10424;52.102;8.084;2023-02-19T08:51:16;4.50;;;2.65;;
20531;SDS011;10424;52.102;8.084;2023-02-19T08:53:45;4.20;;;2.50;;
20531;SDS011;10424;52.102;8.084;2023-02-19T08:56:13;5.70;;;2.58;;
20531;SDS011;10424;52.102;8.084;2023-02-19T08:58:41;4.35;;;2.47;;
20531;SDS011;10424;52.102;8.084;2023-02-19T09:01:09;5.28;;;2.97;;
20531;SDS011;10424;52.102;8.084;2023-02-19T09:03:36;6.32;;;3.22;;
20531;SDS011;10424;52.102;8.084;2023-02-19T09:06:04;5.93;;;3.20;;
20531;SDS011;10424;52.102;8.084;2023-02-19T09:08:31;5.82;;;3.10;;
20531;SDS011;10424;52.102;8.084;2023-02-19T09:11:00;5.63;;;3.03;;
20531;SDS011;10424;52.102;8.084;2023-02-19T09:13:28;6.22;;;3.30;;
20531;SDS011;10424;52.102;8.084;2023-02-19T09:15:55;4.97;;;3.03;;
20531;SDS011;10424;52.102;8.084;2023-02-19T09:18:23;6.15;;;3.10;;
20531;SDS011;10424;52.102;8.084;2023-02-19T09:20:50;5.32;;;3.08;;
20531;SDS011;10424;52.102;8.084;2023-02-19T09:23:17;15.60;;;9.50;;
20531;SDS011;10424;52.102;8.084;2023-02-19T09:25:45;7.63;;;4.35;;
20531;SDS011;10424;52.102;8.084;2023-02-19T09:28:13;7.68;;;4.47;;
20531;SDS011;10424;52.102;8.084;2023-02-19T09:30:41;6.63;;;3.53;;
20531;SDS011;10424;52.102;8.084;2023-02-19T09:33:08;6.50;;;3.55;;
20531;SDS011;10424;52.102;8.084;2023-02-19T09:35:37;6.22;;;3.42;;
20531;SDS011;10424;52.102;8.084;2023-02-19T09:38:04;6.18;;;3.30;;
20531;SDS011;10424;52.102;8.084;2023-02-19T09:40:31;6.78;;;3.70;;
20531;SDS011;10424;52.102;8.084;2023-02-19T09:43:01;6.18;;;3.10;;
20531;SDS011;10424;52.102;8.084;2023-02-19T09:45:30;5.93;;;3.03;;
20531;SDS011;10424;52.102;8.084;2023-02-19T09:47:57;7.32;;;3.50;;
20531;SDS011;10424;52.102;8.084;2023-02-19T09:50:26;6.43;;;3.55;;
20531;SDS011;10424;52.102;8.084;2023-02-19T09:52:58;5.43;;;3.00;;
20531;SDS011;10424;52.102;8.084;2023-02-19T09:55:28;7.00;;;3.53;;
20531;SDS011;10424;52.102;8.084;2023-02-19T09:57:56;5.78;;;3.15;;
20531;SDS011;10424;52.102;8.084;2023-02-19T10:00:25;6.30;;;3.65;;
20531;SDS011;10424;52.102;8.084;2023-02-19T10:02:58;5.25;;;3.00;;
20531;SDS011;10424;52.102;8.084;2023-02-19T10:05:28;9.10;;;4.10;;
20531;SDS011;10424;52.102;8.084;2023-02-19T10:07:55;10.00;;;6.05;;
20531;SDS011;10424;52.102;8.084;2023-02-19T10:10:25;8.43;;;5.28;;
20531;SDS011;10424;52.102;8.084;2023-02-19T10:12:54;7.45;;;3.92;;
20531;SDS011;10424;52.102;8.084;2023-02-19T10:15:24;5.57;;;3.10;;
20531;SDS011;10424;52.102;8.084;2023-02-19T10:17:52;5.32;;;3.17;;
20531;SDS011;10424;52.102;8.084;2023-02-19T10:20:21;7.13;;;3.88;;
20531;SDS011;10424;52.102;8.084;2023-02-19T10:22:54;7.38;;;4.68;;
20531;SDS011;10424;52.102;8.084;2023-02-19T10:25:23;6.60;;;3.85;;
20531;SDS011;10424;52.102;8.084;2023-02-19T10:46:15;5.90;;;3.30;;
20531;SDS011;10424;52.102;8.084;2023-02-19T10:48:45;3.92;;;2.30;;
20531;SDS011;10424;52.102;8.084;2023-02-19T10:51:12;4.05;;;2.70;;
20531;SDS011;10424;52.102;8.084;2023-02-19T10:53:46;3.15;;;2.03;;
20531;SDS011;10424;52.102;8.084;2023-02-19T10:56:14;4.38;;;2.35;;
20531;SDS011;10424;52.102;8.084;2023-02-19T10:58:42;3.08;;;2.10;;
20531;SDS011;10424;52.102;8.084;2023-02-19T11:01:16;2.63;;;1.70;;
20531;SDS011;10424;52.102;8.084;2023-02-19T11:03:44;2.47;;;1.90;;
20531;SDS011;10424;52.102;8.084;2023-02-19T11:06:13;2.58;;;1.83;;
20531;SDS011;10424;52.102;8.084;2023-02-19T11:08:45;2.60;;;1.80;;
20531;SDS011;10424;52.102;8.084;2023-02-19T11:11:20;2.58;;;1.88;;
20531;SDS011;10424;52.102;8.084;2023-02-19T11:13:48;3.33;;;1.40;;
20531;SDS011;10424;52.102;8.084;2023-02-19T11:16:17;1.90;;;1.30;;
20531;SDS011;10424;52.102;8.084;2023-02-19T11:18:44;1.70;;;1.20;;
20531;SDS011;10424;52.102;8.084;2023-02-19T11:21:24;2.35;;;1.30;;
20531;SDS011;10424;52.102;8.084;2023-02-19T11:23:57;1.73;;;1.30;;
20531;SDS011;10424;52.102;8.084;2023-02-19T11:26:25;1.77;;;1.27;;
20531;SDS011;10424;52.102;8.084;2023-02-19T11:28:54;1.23;;;1.13;;
20531;SDS011;10424;52.102;8.084;2023-02-19T11:31:24;1.45;;;1.15;;
20531;SDS011;10424;52.102;8.084;2023-02-19T11:33:55;2.20;;;1.38;;
20531;SDS011;10424;52.102;8.084;2023-02-19T11:36:32;2.42;;;1.30;;
20531;SDS011;10424;52.102;8.084;2023-02-19T11:39:02;2.22;;;1.20;;
20531;SDS011;10424;52.102;8.084;2023-02-19T11:41:50;1.67;;;1.25;;
20531;SDS011;10424;52.102;8.084;2023-02-19T11:44:23;2.70;;;1.40;;
20531;SDS011;10424;52.102;8.084;2023-02-19T11:46:58;1.55;;;1.20;;
20531;SDS011;10424;52.102;8.084;2023-02-19T11:49:33;4.82;;;1.63;;
20531;SDS011;10424;52.102;8.084;2023-02-19T11:52:06;1.50;;;1.10;;
20531;SDS011;10424;52.102;8.084;2023-02-19T11:54:42;1.92;;;1.20;;
20531;SDS011;10424;52.102;8.084;2023-02-19T11:57:14;1.15;;;0.90;;
20531;SDS011;10424;52.102;8.084;2023-02-19T11:59:45;1.67;;;0.95;;
20531;SDS011;10424;52.102;8.084;2023-02-19T12:02:28;1.38;;;0.90;;
20531;SDS011;10424;52.102;8.084;2023-02-19T12:05:17;2.75;;;1.00;;
20531;SDS011;10424;52.102;8.084;2023-02-19T12:10:33;1.48;;;0.98;;
20531;SDS011;10424;52.102;8.084;2023-02-19T12:13:05;0.98;;;0.88;;
20531;SDS011;10424;52.102;8.084;2023-02-19T12:15:41;1.60;;;1.00;;
20531;SDS011;10424;52.102;8.084;2023-02-19T12:21:04;10.38;;;8.35;;
20531;SDS011;10424;52.102;8.084;2023-02-19T12:23:47;2.13;;;1.20;;
20531;SDS011;10424;52.102;8.084;2023-02-19T12:26:20;1.00;;;0.90;;
20531;SDS011;10424;52.102;8.084;2023-02-19T12:28:59;5.97;;;3.80;;
20531;SDS011;10424;52.102;8.084;2023-02-19T12:36:57;2.50;;;1.80;;
20531;SDS011;10424;52.102;8.084;2023-02-19T12:39:31;1.88;;;1.10;;
20531;SDS011;10424;52.102;8.084;2023-02-19T12:42:02;2.13;;;1.17;;
20531;SDS011;10424;52.102;8.084;2023-02-19T12:44:37;1.15;;;1.05;;
20531;SDS011;10424;52.102;8.084;2023-02-19T12:47:06;2.30;;;1.30;;
20531;SDS011;10424;52.102;8.084;2023-02-19T12:49:34;2.72;;;1.42;;
20531;SDS011;10424;52.102;8.084;2023-02-19T12:52:05;2.15;;;1.10;;
20531;SDS011;10424;52.102;8.084;2023-02-19T12:54:34;1.80;;;1.20;;
20531;SDS011;10424;52.102;8.084;2023-02-19T12:57:03;2.20;;;1.55;;
20531;SDS011;10424;52.102;8.084;2023-02-19T12:59:32;2.10;;;1.27;;
20531;SDS011;10424;52.102;8.084;2023-02-19T13:02:03;2.88;;;2.10;;
20531;SDS011;10424;52.102;8.084;2023-02-19T13:04:34;3.05;;;1.40;;
20531;SDS011;10424;52.102;8.084;2023-02-19T13:07:05;2.88;;;1.38;;
20531;SDS011;10424;52.102;8.084;2023-02-19T13:09:35;3.15;;;1.70;;
20531;SDS011;10424;52.102;8.084;2023-02-19T13:12:05;2.10;;;1.40;;
20531;SDS011;10424;52.102;8.084;2023-02-19T13:14:35;1.52;;;1.15;;
20531;SDS011;10424;52.102;8.084;2023-02-19T13:17:05;1.73;;;1.23;;
20531;SDS011;10424;52.102;8.084;2023-02-19T13:19:33;1.85;;;1.30;;
20531;SDS011;10424;52.102;8.084;2023-02-19T13:22:06;2.13;;;1.50;;
20531;SDS011;10424;52.102;8.084;2023-02-19T13:24:54;2.83;;;1.65;;
20531;SDS011;10424;52.102;8.084;2023-02-19T13:27:29;4.10;;;2.35;;
20531;SDS011;10424;52.102;8.084;2023-02-19T13:30:02;5.60;;;2.47;;
20531;SDS011;10424;52.102;8.084;2023-02-19T13:35:26;4.38;;;3.00;;
20531;SDS011;10424;52.102;8.084;2023-02-19T13:38:00;3.85;;;2.50;;
20531;SDS011;10424;52.102;8.084;2023-02-19T13:40:29;4.00;;;2.30;;
20531;SDS011;10424;52.102;8.084;2023-02-19T13:42:57;4.13;;;2.70;;
20531;SDS011;10424;52.102;8.084;2023-02-19T13:45:27;5.43;;;3.45;;
20531;SDS011;10424;52.102;8.084;2023-02-19T13:47:58;5.75;;;3.55;;
20531;SDS011;10424;52.102;8.084;2023-02-19T13:50:27;22.48;;;14.73;;
20531;SDS011;10424;52.102;8.084;2023-02-19T13:52:55;6.88;;;5.03;;
20531;SDS011;10424;52.102;8.084;2023-02-19T14:00:57;6.28;;;3.08;;
20531;SDS011;10424;52.102;8.084;2023-02-19T14:03:26;5.63;;;3.35;;
20531;SDS011;10424;52.102;8.084;2023-02-19T14:05:57;6.53;;;3.78;;
20531;SDS011;10424;52.102;8.084;2023-02-19T14:11:11;8.38;;;4.53;;
20531;SDS011;10424;52.102;8.084;2023-02-19T14:24:49;7.07;;;4.95;;
20531;SDS011;10424;52.102;8.084;2023-02-19T14:27:18;9.02;;;6.07;;
20531;SDS011;10424;52.102;8.084;2023-02-19T14:29:45;7.93;;;5.22;;
20531;SDS011;10424;52.102;8.084;2023-02-19T14:32:15;9.00;;;5.90;;
20531;SDS011;10424;52.102;8.084;2023-02-19T14:34:44;10.25;;;5.57;;
20531;SDS011;10424;52.102;8.084;2023-02-19T14:37:13;9.85;;;6.10;;
20531;SDS011;10424;52.102;8.084;2023-02-19T14:39:42;12.10;;;7.22;;
20531;SDS011;10424;52.102;8.084;2023-02-19T14:42:13;11.45;;;6.25;;
20531;SDS011;10424;52.102;8.084;2023-02-19T14:44:44;10.07;;;6.88;;
20531;SDS011;10424;52.102;8.084;2023-02-19T14:47:15;9.82;;;5.93;;
20531;SDS011;10424;52.102;8.084;2023-02-19T14:49:43;9.90;;;5.70;;
20531;SDS011;10424;52.102;8.084;2023-02-19T14:52:13;10.25;;;5.45;;
20531;SDS011;10424;52.102;8.084;2023-02-19T14:54:43;7.85;;;5.10;;
20531;SDS011;10424;52.102;8.084;2023-02-19T14:57:16;8.93;;;4.85;;
20531;SDS011;10424;52.102;8.084;2023-02-19T14:59:54;8.32;;;5.28;;
20531;SDS011;10424;52.102;8.084;2023-02-19T15:02:22;10.23;;;5.40;;
20531;SDS011;10424;52.102;8.084;2023-02-19T15:04:50;7.43;;;4.50;;
20531;SDS011;10424;52.102;8.084;2023-02-19T15:07:18;8.00;;;4.53;;
20531;SDS011;10424;52.102;8.084;2023-02-19T15:09:47;7.70;;;4.57;;
20531;SDS011;10424;52.102;8.084;2023-02-19T15:12:17;9.38;;;4.80;;
20531;SDS011;10424;52.102;8.084;2023-02-19T15:14:46;7.55;;;4.43;;
20531;SDS011;10424;52.102;8.084;2023-02-19T15:17:15;7.45;;;4.03;;
20531;SDS011;10424;52.102;8.084;2023-02-19T15:19:43;5.75;;;3.55;;
20531;SDS011;10424;52.102;8.084;2023-02-19T15:22:12;5.63;;;3.60;;
20531;SDS011;10424;52.102;8.084;2023-02-19T15:24:42;5.60;;;3.35;;
20531;SDS011;10424;52.102;8.084;2023-02-19T15:27:11;7.22;;;3.65;;
20531;SDS011;10424;52.102;8.084;2023-02-19T15:29:45;5.65;;;3.40;;
20531;SDS011;10424;52.102;8.084;2023-02-19T15:32:14;5.80;;;3.45;;
20531;SDS011;10424;52.102;8.084;2023-02-19T15:34:44;7.10;;;4.28;;
20531;SDS011;10424;52.102;8.084;2023-02-19T15:37:19;4.60;;;3.30;;
20531;SDS011;10424;52.102;8.084;2023-02-19T15:39:46;5.85;;;3.78;;
20531;SDS011;10424;52.102;8.084;2023-02-19T15:42:15;5.63;;;3.75;;
20531;SDS011;10424;52.102;8.084;2023-02-19T15:44:45;4.93;;;3.10;;
20531;SDS011;10424;52.102;8.084;2023-02-19T15:47:17;4.45;;;2.60;;
20531;SDS011;10424;52.102;8.084;2023-02-19T15:49:48;5.55;;;3.08;;
20531;SDS011;10424;52.102;8.084;2023-02-19T15:52:19;6.38;;;3.78;;